Time;durP1;ratioP1;P1;durP2;ratioP2;P2;SDS_P1;SDS_P2;PMS_P1;PMS_P2;Temp;Humidity;BMP_temperature;BMP_pressure;BME280_temperature;BME280_humidity;BME280_pressure;Samples;Min_cycle;Max_cycle;Signal;HPM_P1;HPM_P2
2023/06/15 00:01:05;;;;;;;6.22;4.53;;;15.10;85.20;;;;;;5081501;28;20028;-51
2023/06/15 00:03:31;;;;;;;8.88;5.35;;;15.10;84.90;;;;;;5076277;28;20029;-51
2023/06/15 00:05:58;;;;;;;6.28;4.07;;;15.00;84.90;;;;;;5077414;28;20024;-50
2023/06/15 00:08:23;;;;;;;8.80;4.15;;;15.00;85.30;;;;;;5082367;28;20031;-50
2023/06/15 00:10:49;;;;;;;7.38;4.85;;;15.00;85.70;;;;;;5090370;28;20393;-50
2023/06/15 00:13:16;;;;;;;5.55;4.63;;;15.00;86.40;;;;;;5077242;28;20450;-50
2023/06/15 00:15:41;;;;;;;6.75;4.43;;;14.90;86.40;;;;;;5077518;28;20017;-50
2023/06/15 00:18:07;;;;;;;7.25;4.75;;;14.80;87.00;;;;;;5077672;28;20035;-50
2023/06/15 00:20:34;;;;;;;6.63;4.63;;;14.70;88.10;;;;;;5082755;28;20392;-50
2023/06/15 00:22:59;;;;;;;5.63;4.00;;;14.60;88.20;;;;;;5081059;28;20026;-47
2023/06/15 00:25:25;;;;;;;5.45;4.20;;;14.50;89.10;;;;;;5077508;28;20466;-50
2023/06/15 00:27:51;;;;;;;5.57;3.88;;;14.50;89.30;;;;;;5085132;28;20062;-50
2023/06/15 00:30:17;;;;;;;6.03;3.80;;;14.40;90.00;;;;;;5081109;28;20047;-47
2023/06/15 00:32:44;;;;;;;9.57;4.55;;;14.30;90.40;;;;;;5081061;28;20016;-47
2023/06/15 00:35:10;;;;;;;5.65;4.30;;;14.30;90.70;;;;;;5077479;28;20020;-47
2023/06/15 00:37:35;;;;;;;9.38;4.65;;;14.20;91.00;;;;;;5074268;28;20027;-47
2023/06/15 00:40:01;;;;;;;5.50;4.38;;;14.20;91.20;;;;;;5080837;28;20568;-48
2023/06/15 00:42:32;;;;;;;7.32;4.15;;;14.20;91.30;;;;;;5084742;28;20012;-46
2023/06/15 00:44:57;;;;;;;5.43;4.05;;;14.10;91.90;;;;;;5085292;28;20065;-50
2023/06/15 00:47:23;;;;;;;4.90;4.10;;;14.00;92.30;;;;;;5079104;28;20494;-48
2023/06/15 00:49:49;;;;;;;6.32;3.85;;;13.90;92.60;;;;;;5079638;28;20046;-47
2023/06/15 00:52:16;;;;;;;7.55;4.00;;;13.90;93.00;;;;;;5089122;28;20020;-48
2023/06/15 00:54:43;;;;;;;7.40;4.60;;;14.00;93.00;;;;;;5082576;28;20025;-47
2023/06/15 00:57:10;;;;;;;5.10;4.38;;;14.00;93.30;;;;;;5084672;28;20028;-49
2023/06/15 00:59:39;;;;;;;6.28;4.55;;;14.00;93.50;;;;;;5074753;28;20005;-47
2023/06/15 01:02:05;;;;;;;5.13;3.85;;;13.90;94.40;;;;;;5079433;28;20573;-48
2023/06/15 01:04:31;;;;;;;5.60;4.20;;;13.80;94.40;;;;;;5073475;28;20091;-47
2023/06/15 01:07:02;;;;;;;5.47;4.20;;;13.80;95.40;;;;;;5080192;28;20038;-47
2023/06/15 01:09:29;;;;;;;5.45;4.28;;;13.70;95.50;;;;;;5061339;28;20052;-47
2023/06/15 01:11:57;;;;;;;6.65;4.60;;;13.60;96.10;;;;;;5067099;28;20025;-48
2023/06/15 01:14:25;;;;;;;6.57;3.97;;;13.70;96.60;;;;;;5079606;28;20370;-48
2023/06/15 01:16:57;;;;;;;6.82;4.65;;;13.50;96.80;;;;;;5077977;28;20073;-48
2023/06/15 01:19:54;;;;;;;4.88;4.07;;;13.50;97.50;;;;;;5076473;28;20114;-50
2023/06/15 01:22:41;;;;;;;6.40;4.20;;;13.40;98.10;;;;;;5066796;28;20460;-48
2023/06/15 01:25:26;;;;;;;5.88;4.55;;;13.40;99.20;;;;;;5069061;28;20103;-49
2023/06/15 01:27:59;;;;;;;5.70;4.00;;;13.30;99.60;;;;;;5072376;28;20108;-49
2023/06/15 01:30:27;;;;;;;5.43;4.03;;;13.20;99.90;;;;;;5059995;28;20016;-50
2023/06/15 01:32:53;;;;;;;7.38;4.43;;;13.20;99.90;;;;;;5075766;28;20024;-49
2023/06/15 01:35:19;;;;;;;10.02;4.47;;;13.20;99.90;;;;;;5076248;28;20101;-47
2023/06/15 01:37:45;;;;;;;4.57;3.97;;;13.10;99.90;;;;;;5079676;28;20508;-47
2023/06/15 01:40:11;;;;;;;5.78;4.18;;;13.10;99.90;;;;;;5080696;28;20025;-47
2023/06/15 01:42:38;;;;;;;7.40;4.13;;;13.00;99.90;;;;;;5082210;28;20048;-49
2023/06/15 01:45:04;;;;;;;6.10;4.25;;;13.10;99.90;;;;;;5080837;28;20366;-47
2023/06/15 01:47:30;;;;;;;6.25;4.22;;;13.00;99.90;;;;;;5078629;28;20567;-47
2023/06/15 01:49:55;;;;;;;6.20;4.50;;;13.00;99.90;;;;;;5080120;28;20104;-49
2023/06/15 01:52:21;;;;;;;6.10;4.68;;;13.10;99.90;;;;;;5078709;28;20432;-48
2023/06/15 01:54:47;;;;;;;5.93;4.07;;;13.10;99.90;;;;;;5078095;28;20024;-47
2023/06/15 01:57:13;;;;;;;7.00;4.55;;;13.10;99.90;;;;;;5079202;28;20381;-47
2023/06/15 01:59:38;;;;;;;6.40;4.88;;;13.20;99.90;;;;;;5084551;28;20449;-47
2023/06/15 02:02:04;;;;;;;7.95;4.65;;;13.10;99.90;;;;;;5083639;28;20012;-50
2023/06/15 02:04:30;;;;;;;7.60;4.60;;;13.10;99.90;;;;;;5083744;28;20092;-49
2023/06/15 02:06:57;;;;;;;7.57;4.35;;;13.10;99.90;;;;;;5080241;28;20016;-48
2023/06/15 02:09:22;;;;;;;8.35;4.75;;;13.10;99.90;;;;;;5080619;28;20442;-48
2023/06/15 02:11:48;;;;;;;7.30;4.53;;;13.10;99.90;;;;;;5085234;28;20055;-48
2023/06/15 02:14:17;;;;;;;8.95;5.20;;;13.10;99.90;;;;;;5087082;28;20063;-47
2023/06/15 02:16:43;;;;;;;7.55;4.80;;;13.10;99.90;;;;;;5075355;28;20036;-48
2023/06/15 02:19:08;;;;;;;4.43;3.88;;;13.00;99.90;;;;;;5083323;28;20066;-42
2023/06/15 02:21:35;;;;;;;5.40;4.10;;;12.90;99.90;;;;;;5079908;28;20046;-41
2023/06/15 02:24:00;;;;;;;5.38;4.03;;;12.90;99.90;;;;;;5080371;28;20525;-41
2023/06/15 02:26:26;;;;;;;5.88;4.50;;;12.90;99.90;;;;;;5079726;28;20108;-41
2023/06/15 02:28:51;;;;;;;9.63;4.55;;;12.80;99.90;;;;;;5079392;28;20042;-41
2023/06/15 02:31:17;;;;;;;8.27;4.80;;;12.70;99.90;;;;;;5080132;28;20103;-43
2023/06/15 02:33:42;;;;;;;5.20;4.30;;;12.60;99.90;;;;;;5080879;28;20107;-42
2023/06/15 02:36:09;;;;;;;9.90;5.03;;;12.60;99.90;;;;;;5079494;28;20373;-41
2023/06/15 02:38:37;;;;;;;8.05;5.32;;;12.60;99.90;;;;;;5081485;28;20024;-42
2023/06/15 02:41:02;;;;;;;5.95;4.57;;;12.60;99.90;;;;;;5070585;28;20023;-41
2023/06/15 02:43:28;;;;;;;6.13;4.65;;;12.60;99.90;;;;;;5069710;28;20537;-42
2023/06/15 02:45:53;;;;;;;6.55;4.30;;;12.50;99.90;;;;;;5070665;28;20016;-42
2023/06/15 02:48:19;;;;;;;8.00;4.93;;;12.50;99.90;;;;;;5071220;28;20025;-43
2023/06/15 02:50:44;;;;;;;7.82;5.40;;;12.40;99.90;;;;;;5069934;28;20106;-43
2023/06/15 02:53:12;;;;;;;8.10;4.68;;;12.40;99.90;;;;;;5070470;28;20048;-42
2023/06/15 02:55:38;;;;;;;6.30;4.57;;;12.40;99.90;;;;;;5070421;28;20029;-42
2023/06/15 02:58:03;;;;;;;7.35;5.05;;;12.40;99.90;;;;;;5070476;28;20116;-40
2023/06/15 03:00:29;;;;;;;6.70;4.40;;;12.30;99.90;;;;;;5069310;28;20017;-41
2023/06/15 03:02:55;;;;;;;9.90;4.88;;;12.30;99.90;;;;;;5070559;28;20074;-41
2023/06/15 03:05:22;;;;;;;6.53;4.82;;;12.30;99.90;;;;;;5078037;28;20020;-42
2023/06/15 03:07:48;;;;;;;9.50;5.45;;;12.30;99.90;;;;;;5070419;28;20025;-40
2023/06/15 03:10:13;;;;;;;5.97;4.70;;;12.40;99.90;;;;;;5069982;28;20025;-41
2023/06/15 03:12:39;;;;;;;9.63;5.25;;;12.40;99.90;;;;;;5077057;28;20040;-42
2023/06/15 03:15:08;;;;;;;9.95;4.60;;;12.30;99.90;;;;;;5070165;28;20020;-40
2023/06/15 03:17:34;;;;;;;9.30;5.90;;;12.30;99.90;;;;;;5082353;28;20252;-41
2023/06/15 03:20:00;;;;;;;8.55;5.18;;;12.30;99.90;;;;;;5082866;28;20038;-41
2023/06/15 03:22:25;;;;;;;7.70;5.20;;;12.20;99.90;;;;;;5069770;28;20486;-42
2023/06/15 03:24:55;;;;;;;7.28;5.28;;;12.20;99.90;;;;;;5078667;28;20035;-41
2023/06/15 03:27:20;;;;;;;8.20;5.60;;;12.10;99.90;;;;;;5079939;28;20489;-40
2023/06/15 03:29:49;;;;;;;9.73;4.90;;;12.20;99.90;;;;;;5090826;28;20085;-42
2023/06/15 03:32:15;;;;;;;6.20;4.55;;;12.10;99.90;;;;;;5072086;28;20293;-43
2023/06/15 03:34:40;;;;;;;12.32;5.63;;;12.10;99.90;;;;;;5069813;28;20112;-43
2023/06/15 03:37:06;;;;;;;7.03;4.47;;;12.10;99.90;;;;;;5069131;28;20275;-42
2023/06/15 03:39:32;;;;;;;7.65;4.88;;;12.10;99.90;;;;;;5072590;28;20047;-42
2023/06/15 03:41:58;;;;;;;9.30;5.28;;;12.10;99.90;;;;;;5082797;28;20021;-41
2023/06/15 03:44:23;;;;;;;7.85;5.68;;;12.10;99.90;;;;;;5069048;28;20036;-41
2023/06/15 03:46:49;;;;;;;8.93;6.00;;;12.10;99.90;;;;;;5067476;28;20567;-42
2023/06/15 03:49:14;;;;;;;6.63;4.55;;;12.20;99.90;;;;;;5069814;28;20444;-42
2023/06/15 03:51:40;;;;;;;8.27;5.43;;;12.20;99.90;;;;;;5069907;28;20427;-42
2023/06/15 03:54:05;;;;;;;8.20;5.32;;;12.30;99.90;;;;;;5067645;28;20012;-43
2023/06/15 03:56:31;;;;;;;6.00;4.88;;;12.30;99.90;;;;;;5063113;28;20077;-40
2023/06/15 03:58:57;;;;;;;7.72;5.43;;;12.30;99.90;;;;;;5081455;28;20028;-42
2023/06/15 04:01:25;;;;;;;9.07;5.07;;;12.40;99.90;;;;;;5076283;28;20100;-42
2023/06/15 04:03:54;;;;;;;9.90;6.30;;;12.40;99.90;;;;;;5089773;28;20016;-41
2023/06/15 04:06:23;;;;;;;11.77;6.78;;;12.40;99.90;;;;;;5070546;28;20029;-41
2023/06/15 04:08:48;;;;;;;12.73;6.13;;;12.50;99.90;;;;;;5057655;28;20032;-42
2023/06/15 04:11:15;;;;;;;16.55;6.38;;;12.60;99.90;;;;;;5079957;28;20052;-41
2023/06/15 04:13:40;;;;;;;10.02;6.63;;;12.70;99.90;;;;;;5067565;28;20028;-41
2023/06/15 04:16:06;;;;;;;10.65;6.38;;;12.80;99.90;;;;;;5068382;28;20028;-41
2023/06/15 04:18:31;;;;;;;11.23;6.75;;;12.80;99.90;;;;;;5070986;28;20196;-43
2023/06/15 04:20:57;;;;;;;8.52;5.93;;;12.90;99.90;;;;;;5083266;28;20544;-42
2023/06/15 04:23:22;;;;;;;10.35;5.82;;;12.90;99.90;;;;;;5078827;28;20370;-42
2023/06/15 04:25:48;;;;;;;13.02;6.25;;;13.00;99.90;;;;;;5074846;28;20024;-42
2023/06/15 04:28:16;;;;;;;13.23;7.07;;;13.00;99.90;;;;;;5086263;28;20024;-44
2023/06/15 04:30:44;;;;;;;14.32;7.55;;;13.10;99.90;;;;;;5083887;28;20059;-42
2023/06/15 04:33:13;;;;;;;10.52;6.07;;;13.20;99.90;;;;;;5082184;28;20020;-41
2023/06/15 04:35:40;;;;;;;10.95;6.22;;;13.30;99.90;;;;;;5076063;28;20079;-43
2023/06/15 04:38:06;;;;;;;8.27;5.90;;;13.40;99.90;;;;;;5077007;28;20032;-45
2023/06/15 04:40:32;;;;;;;12.98;6.00;;;13.40;99.90;;;;;;5071607;28;20023;-41
2023/06/15 04:42:58;;;;;;;9.13;5.68;;;13.50;99.90;;;;;;5088980;28;20024;-41
2023/06/15 04:45:23;;;;;;;11.05;6.35;;;13.50;99.90;;;;;;5080045;28;20046;-42
2023/06/15 04:47:49;;;;;;;7.72;5.88;;;13.60;99.90;;;;;;5081960;28;20031;-44
2023/06/15 04:50:14;;;;;;;10.20;5.65;;;13.60;99.90;;;;;;5079359;28;20028;-41
2023/06/15 04:52:40;;;;;;;7.20;5.30;;;13.70;99.90;;;;;;5080440;28;20031;-41
2023/06/15 04:55:07;;;;;;;8.07;4.85;;;13.80;99.90;;;;;;5080385;28;20398;-42
2023/06/15 04:57:33;;;;;;;8.40;6.00;;;13.80;99.90;;;;;;5066389;28;20055;-41
2023/06/15 04:59:59;;;;;;;6.88;5.18;;;13.80;99.90;;;;;;5061537;28;20442;-42
2023/06/15 05:02:25;;;;;;;8.13;5.63;;;13.80;99.90;;;;;;5067707;28;20037;-42
2023/06/15 05:04:50;;;;;;;7.93;5.95;;;13.90;99.90;;;;;;5063982;28;20036;-42
2023/06/15 05:07:16;;;;;;;13.90;6.88;;;14.00;99.90;;;;;;5066269;28;20052;-42
2023/06/15 05:09:42;;;;;;;10.77;6.82;;;14.00;99.90;;;;;;5077189;28;20086;-44
2023/06/15 05:12:08;;;;;;;8.32;5.72;;;14.10;99.90;;;;;;5066561;28;20073;-41
2023/06/15 05:14:33;;;;;;;7.60;5.35;;;14.20;99.90;;;;;;5062444;28;20031;-42
2023/06/15 05:17:03;;;;;;;12.63;5.80;;;14.30;99.90;;;;;;5058036;28;20025;-43
2023/06/15 05:19:29;;;;;;;8.13;5.03;;;14.30;99.90;;;;;;5061356;28;20429;-43
2023/06/15 05:21:58;;;;;;;8.57;5.57;;;14.40;99.90;;;;;;5059469;28;20418;-43
2023/06/15 05:24:24;;;;;;;9.27;5.80;;;14.40;99.90;;;;;;5058396;28;20021;-44
2023/06/15 05:26:50;;;;;;;14.52;5.60;;;14.50;99.90;;;;;;5059018;28;20025;-42
2023/06/15 05:29:15;;;;;;;7.55;5.95;;;14.50;99.90;;;;;;5055911;28;20310;-43
2023/06/15 05:31:41;;;;;;;9.00;5.97;;;14.50;99.90;;;;;;5058978;28;20498;-43
2023/06/15 05:34:06;;;;;;;10.40;5.20;;;14.60;99.90;;;;;;5075095;28;20097;-42
2023/06/15 05:36:33;;;;;;;8.40;5.72;;;14.70;99.90;;;;;;5079419;28;20032;-42
2023/06/15 05:38:59;;;;;;;6.93;4.65;;;14.70;99.60;;;;;;5065289;28;20028;-42
2023/06/15 05:41:24;;;;;;;8.45;5.15;;;14.80;99.40;;;;;;5075587;28;20393;-42
2023/06/15 05:43:50;;;;;;;10.55;6.28;;;14.90;99.10;;;;;;5079981;28;20339;-43
2023/06/15 05:46:15;;;;;;;7.45;5.43;;;15.00;97.40;;;;;;5082941;28;20032;-42
2023/06/15 05:48:41;;;;;;;8.25;5.30;;;15.00;98.80;;;;;;5081070;28;20064;-41
2023/06/15 05:51:06;;;;;;;10.38;5.57;;;15.10;98.40;;;;;;5082264;28;20027;-41
2023/06/15 05:53:32;;;;;;;7.45;4.82;;;15.20;97.30;;;;;;5081842;28;20517;-42
2023/06/15 05:55:57;;;;;;;6.25;4.95;;;15.30;97.40;;;;;;5086137;28;20473;-42
2023/06/15 05:58:23;;;;;;;6.95;5.10;;;15.30;97.90;;;;;;5074248;28;20077;-42
2023/06/15 06:00:48;;;;;;;5.97;4.90;;;15.40;97.20;;;;;;5083610;28;20028;-41
2023/06/15 06:03:14;;;;;;;6.93;4.72;;;15.50;96.80;;;;;;5088551;28;20028;-41
2023/06/15 06:05:40;;;;;;;10.43;5.20;;;15.60;96.50;;;;;;5089921;28;20515;-41
2023/06/15 06:08:05;;;;;;;9.93;5.10;;;15.60;95.50;;;;;;5076079;28;20024;-41
2023/06/15 06:10:31;;;;;;;5.00;4.32;;;15.70;95.40;;;;;;5070463;28;20154;-41
2023/06/15 06:12:56;;;;;;;7.35;4.45;;;15.70;95.00;;;;;;5071742;28;20103;-41
2023/06/15 06:15:22;;;;;;;12.90;5.30;;;15.80;95.30;;;;;;5070227;28;20024;-40
2023/06/15 06:17:47;;;;;;;9.13;5.50;;;15.90;95.00;;;;;;5070841;28;20064;-40
2023/06/15 06:20:13;;;;;;;6.03;4.45;;;16.00;95.10;;;;;;5071958;28;20016;-40
2023/06/15 06:22:38;;;;;;;8.60;5.03;;;16.10;95.10;;;;;;5063529;28;20029;-41
2023/06/15 06:25:05;;;;;;;7.90;4.85;;;16.10;93.70;;;;;;5086068;28;20101;-40
2023/06/15 06:27:30;;;;;;;5.78;4.53;;;16.20;93.50;;;;;;5080336;28;20397;-41
2023/06/15 06:29:58;;;;;;;9.82;5.65;;;16.30;92.80;;;;;;5084238;28;20032;-40
2023/06/15 06:32:23;;;;;;;8.25;4.70;;;16.40;91.90;;;;;;5089579;28;20020;-41
2023/06/15 06:34:49;;;;;;;7.53;4.82;;;16.50;91.50;;;;;;5070883;28;20032;-41
2023/06/15 06:37:14;;;;;;;6.63;5.03;;;16.70;91.50;;;;;;5078567;28;20478;-41
2023/06/15 06:39:40;;;;;;;8.82;5.22;;;16.80;90.90;;;;;;5081974;28;20089;-41
2023/06/15 06:42:06;;;;;;;5.28;4.22;;;16.90;90.20;;;;;;5084151;28;20021;-41
2023/06/15 06:44:31;;;;;;;6.03;4.00;;;17.00;90.50;;;;;;5072225;28;20033;-41
2023/06/15 06:46:57;;;;;;;10.80;4.38;;;17.10;89.80;;;;;;5090576;28;20024;-41
2023/06/15 06:49:22;;;;;;;7.20;4.97;;;17.20;88.90;;;;;;5074261;28;20526;-40
2023/06/15 06:51:48;;;;;;;11.38;5.15;;;17.40;88.80;;;;;;5077697;28;20032;-42
2023/06/15 06:54:13;;;;;;;8.18;5.25;;;17.50;88.30;;;;;;5070706;28;20021;-42
2023/06/15 06:56:39;;;;;;;10.00;5.80;;;17.60;87.40;;;;;;5068494;28;20051;-40
2023/06/15 06:59:04;;;;;;;8.73;6.03;;;17.70;86.80;;;;;;5075342;28;20017;-41
2023/06/15 07:01:29;;;;;;;10.70;5.03;;;17.80;88.40;;;;;;5070677;28;20393;-41
2023/06/15 07:03:55;;;;;;;6.63;4.78;;;18.00;86.60;;;;;;5070759;28;20028;-41
2023/06/15 07:06:21;;;;;;;9.63;4.93;;;18.20;86.70;;;;;;5070266;28;20028;-42
2023/06/15 07:08:47;;;;;;;328.73;222.98;;;18.30;85.50;;;;;;5074713;28;20076;-42
2023/06/15 07:11:13;;;;;;;102.75;64.72;;;18.40;84.90;;;;;;5083140;28;20461;-41
2023/06/15 07:13:40;;;;;;;52.42;32.80;;;18.50;83.70;;;;;;5070245;28;20047;-41
2023/06/15 07:16:06;;;;;;;13.68;9.25;;;18.70;84.40;;;;;;5083972;28;20057;-42
2023/06/15 07:18:32;;;;;;;11.52;5.53;;;18.90;83.50;;;;;;5079923;28;20024;-41
2023/06/15 07:20:57;;;;;;;5.20;4.47;;;19.00;83.10;;;;;;5078692;28;20056;-42
2023/06/15 07:23:24;;;;;;;6.15;4.88;;;19.10;83.10;;;;;;5071100;28;20020;-42
2023/06/15 07:25:53;;;;;;;6.68;4.85;;;19.30;81.00;;;;;;5081452;28;20027;-41
2023/06/15 07:28:19;;;;;;;8.00;3.97;;;19.40;80.30;;;;;;5081734;28;20038;-42
2023/06/15 07:30:49;;;;;;;6.75;5.15;;;19.60;79.80;;;;;;5090301;28;20081;-41
2023/06/15 07:33:15;;;;;;;8.53;5.10;;;19.70;78.10;;;;;;5088908;28;20520;-41
2023/06/15 07:35:41;;;;;;;8.70;4.32;;;19.80;76.30;;;;;;5068816;28;20271;-42
2023/06/15 07:38:07;;;;;;;7.28;4.10;;;20.00;76.30;;;;;;5084732;28;20086;-42
2023/06/15 07:40:32;;;;;;;7.20;4.05;;;20.10;74.60;;;;;;5079240;28;20033;-42
2023/06/15 07:42:58;;;;;;;10.65;4.28;;;20.20;75.70;;;;;;5070008;28;20119;-41
2023/06/15 07:45:24;;;;;;;9.02;3.88;;;20.40;75.20;;;;;;5075228;28;20056;-42
2023/06/15 07:47:49;;;;;;;10.98;5.20;;;20.60;75.00;;;;;;5085163;28;20040;-42
2023/06/15 07:50:15;;;;;;;6.60;4.13;;;20.80;72.30;;;;;;5068258;28;20472;-44
2023/06/15 07:52:40;;;;;;;7.70;4.95;;;21.00;73.30;;;;;;5071318;28;20052;-43
2023/06/15 07:55:06;;;;;;;8.45;4.82;;;21.10;70.40;;;;;;5073226;28;20021;-45
2023/06/15 07:57:34;;;;;;;6.35;4.38;;;21.20;70.10;;;;;;5068406;28;20070;-41
2023/06/15 08:00:00;;;;;;;5.80;4.20;;;21.50;71.00;;;;;;5083844;28;20050;-41
2023/06/15 08:02:26;;;;;;;5.50;3.80;;;21.70;69.80;;;;;;5071932;28;20221;-43
2023/06/15 08:04:51;;;;;;;7.43;3.90;;;21.90;67.40;;;;;;5068975;28;20024;-43
2023/06/15 08:07:17;;;;;;;9.32;3.90;;;22.20;67.60;;;;;;5070697;28;20343;-43
2023/06/15 08:09:42;;;;;;;7.57;3.80;;;22.60;67.00;;;;;;5072954;28;20024;-43
2023/06/15 08:12:09;;;;;;;9.43;3.53;;;23.30;64.80;;;;;;5069404;28;20100;-43
2023/06/15 08:14:36;;;;;;;9.20;3.55;;;24.40;61.90;;;;;;5071010;28;20024;-45
2023/06/15 08:17:01;;;;;;;6.00;3.35;;;25.70;57.30;;;;;;5073658;28;20489;-42
2023/06/15 08:19:27;;;;;;;11.23;3.70;;;26.40;55.90;;;;;;5079938;28;20020;-43
2023/06/15 08:21:52;;;;;;;5.80;3.60;;;27.10;54.00;;;;;;5075751;28;20028;-46
2023/06/15 08:24:18;;;;;;;8.65;3.70;;;27.70;52.40;;;;;;5088467;28;20016;-43
2023/06/15 08:26:44;;;;;;;6.03;3.40;;;28.20;51.20;;;;;;5076432;28;20021;-45
2023/06/15 08:29:10;;;;;;;8.68;3.30;;;29.10;49.60;;;;;;5077274;28;20017;-46
2023/06/15 08:31:36;;;;;;;5.93;3.15;;;29.30;48.40;;;;;;5068685;28;20024;-45
2023/06/15 08:34:01;;;;;;;5.80;3.28;;;29.40;48.10;;;;;;5074743;28;20055;-43
2023/06/15 08:36:28;;;;;;;3.88;2.88;;;30.10;47.60;;;;;;5070156;28;20032;-43
2023/06/15 08:38:54;;;;;;;4.30;3.17;;;29.90;46.20;;;;;;5069212;28;20008;-45
2023/06/15 08:41:22;;;;;;;6.65;3.40;;;29.80;46.50;;;;;;5066819;28;20039;-46
2023/06/15 08:43:52;;;;;;;5.93;3.97;;;29.40;46.70;;;;;;5068519;28;20013;-46
2023/06/15 08:46:18;;;;;;;6.13;3.75;;;28.90;47.80;;;;;;5068482;28;20021;-43
2023/06/15 08:48:46;;;;;;;5.25;3.13;;;28.40;47.50;;;;;;5071824;28;20020;-44
2023/06/15 08:51:12;;;;;;;4.47;2.92;;;27.90;48.30;;;;;;5088988;28;20477;-43
2023/06/15 08:53:41;;;;;;;7.70;3.63;;;27.30;49.50;;;;;;5069686;28;20033;-44
2023/06/15 08:56:11;;;;;;;6.20;4.20;;;27.20;49.00;;;;;;5076650;28;20074;-46
2023/06/15 08:58:37;;;;;;;5.07;3.60;;;28.20;49.30;;;;;;5068568;28;20023;-45
2023/06/15 09:01:02;;;;;;;4.78;3.90;;;29.40;48.00;;;;;;5068793;28;20024;-47
2023/06/15 09:03:29;;;;;;;7.05;3.20;;;29.90;47.00;;;;;;5068464;28;20059;-43
2023/06/15 09:05:55;;;;;;;6.38;3.63;;;29.70;46.10;;;;;;5076346;28;20019;-43
2023/06/15 09:08:20;;;;;;;7.60;3.75;;;30.50;44.60;;;;;;5067622;28;20032;-44
2023/06/15 09:10:46;;;;;;;8.88;3.40;;;31.10;44.70;;;;;;5071667;28;20024;-44
2023/06/15 09:13:16;;;;;;;4.38;3.15;;;32.50;44.20;;;;;;5066392;28;20111;-45
2023/06/15 09:15:43;;;;;;;6.95;3.25;;;33.50;42.10;;;;;;5066615;28;20036;-45
2023/06/15 09:18:10;;;;;;;6.60;3.13;;;34.40;41.30;;;;;;5067900;28;20512;-44
2023/06/15 09:20:39;;;;;;;4.15;3.10;;;35.00;41.20;;;;;;5086059;28;20008;-46
2023/06/15 09:23:09;;;;;;;5.03;3.17;;;35.80;40.10;;;;;;5073567;28;20020;-45
2023/06/15 09:25:36;;;;;;;4.55;3.13;;;36.50;39.60;;;;;;5074256;28;20028;-45
2023/06/15 09:28:06;;;;;;;9.23;3.28;;;37.20;39.40;;;;;;5068121;28;20016;-44
2023/06/15 09:30:35;;;;;;;5.40;3.45;;;37.80;37.90;;;;;;5074917;28;20024;-45
2023/06/15 09:33:10;;;;;;;5.10;3.40;;;37.80;38.70;;;;;;5071942;28;20020;-45
2023/06/15 09:35:36;;;;;;;4.90;2.92;;;37.00;37.40;;;;;;5065622;28;20083;-47
2023/06/15 09:38:02;;;;;;;3.42;3.05;;;35.70;38.20;;;;;;5066778;28;20490;-43
2023/06/15 09:40:31;;;;;;;4.82;3.03;;;35.10;39.10;;;;;;5068732;28;20017;-44
2023/06/15 09:42:58;;;;;;;4.97;2.93;;;34.90;40.30;;;;;;5068040;28;20478;-43
2023/06/15 09:45:24;;;;;;;3.25;2.90;;;34.50;39.90;;;;;;5067570;28;20024;-44
2023/06/15 09:47:56;;;;;;;6.53;3.05;;;35.50;39.80;;;;;;5068045;28;20031;-46
2023/06/15 09:50:29;;;;;;;6.13;3.67;;;35.30;39.00;;;;;;5067880;28;20033;-46
2023/06/15 09:52:56;;;;;;;4.95;3.05;;;35.60;39.40;;;;;;5065328;28;20017;-44
2023/06/15 09:55:23;;;;;;;10.55;3.25;;;35.00;39.50;;;;;;5067145;28;20024;-45
2023/06/15 09:57:50;;;;;;;5.72;2.70;;;34.20;40.00;;;;;;5064728;28;20047;-47
2023/06/15 10:00:16;;;;;;;5.38;3.10;;;33.80;40.70;;;;;;5067490;28;20021;-44
2023/06/15 10:02:44;;;;;;;3.97;2.88;;;33.50;40.30;;;;;;5071615;28;20029;-46
2023/06/15 10:05:14;;;;;;;6.95;3.20;;;33.50;41.50;;;;;;5067041;28;20013;-47
2023/06/15 10:07:46;;;;;;;6.68;3.17;;;34.40;39.90;;;;;;5073855;28;20240;-44
2023/06/15 10:10:13;;;;;;;7.88;3.08;;;35.70;37.70;;;;;;5066294;28;20228;-44
2023/06/15 10:12:41;;;;;;;3.70;2.70;;;36.00;37.60;;;;;;5068218;28;20063;-46
2023/06/15 10:15:12;;;;;;;3.97;2.95;;;36.40;37.70;;;;;;5067849;28;20016;-44
2023/06/15 10:17:40;;;;;;;4.30;2.80;;;36.50;37.20;;;;;;5067349;28;20028;-45
2023/06/15 10:20:17;;;;;;;6.50;2.83;;;37.10;37.90;;;;;;5074125;28;20367;-43
2023/06/15 10:23:07;;;;;;;5.38;3.20;;;37.60;37.00;;;;;;5080062;28;20028;-46
2023/06/15 10:25:33;;;;;;;5.40;3.33;;;37.50;37.50;;;;;;5070893;28;20021;-44
2023/06/15 10:28:11;;;;;;;6.45;3.10;;;37.50;36.60;;;;;;5071322;28;20467;-43
2023/06/15 10:30:48;;;;;;;5.15;2.90;;;35.90;37.40;;;;;;5078457;28;20024;-43
2023/06/15 10:33:41;;;;;;;5.20;2.75;;;35.50;38.60;;;;;;5078310;28;20020;-43
2023/06/15 10:36:15;;;;;;;6.10;3.33;;;35.80;37.90;;;;;;5076767;28;20063;-43
2023/06/15 10:38:44;;;;;;;4.43;3.10;;;34.90;38.30;;;;;;5079553;28;20020;-48
2023/06/15 10:41:10;;;;;;;5.70;3.23;;;35.40;38.90;;;;;;5077340;28;20116;-44
2023/06/15 10:43:36;;;;;;;9.27;3.00;;;36.60;38.80;;;;;;5082550;28;20345;-43
2023/06/15 10:46:02;;;;;;;5.47;2.90;;;36.90;37.90;;;;;;5077197;28;20178;-45
2023/06/15 10:48:29;;;;;;;5.53;3.10;;;35.80;37.50;;;;;;5068183;28;20078;-43
2023/06/15 10:51:05;;;;;;;5.28;3.30;;;34.30;38.40;;;;;;5076055;28;20009;-44
2023/06/15 10:53:42;;;;;;;6.28;3.78;;;33.10;39.80;;;;;;5073429;28;20021;-42
2023/06/15 10:56:15;;;;;;;5.18;3.28;;;33.20;41.90;;;;;;5078440;28;20065;-46
2023/06/15 10:58:53;;;;;;;11.05;9.70;;;33.70;40.00;;;;;;5088910;28;20038;-42
2023/06/15 11:01:22;;;;;;;7.13;4.60;;;34.00;39.50;;;;;;5086094;28;20102;-43
2023/06/15 11:03:48;;;;;;;7.78;3.58;;;33.60;40.10;;;;;;5080784;28;20102;-43
2023/06/15 11:06:15;;;;;;;6.57;3.45;;;32.60;41.30;;;;;;5088874;28;20099;-43
2023/06/15 11:08:52;;;;;;;5.30;3.40;;;31.30;42.50;;;;;;5068887;28;20025;-43
2023/06/15 11:11:20;;;;;;;4.28;3.42;;;30.80;44.60;;;;;;5069765;28;20268;-45
2023/06/15 11:14:05;;;;;;;7.57;3.97;;;31.20;44.60;;;;;;5081231;28;20557;-43
2023/06/15 11:16:35;;;;;;;5.15;3.08;;;31.90;43.60;;;;;;5073557;28;20028;-43
2023/06/15 11:19:10;;;;;;;4.90;3.42;;;31.40;43.20;;;;;;5070172;28;20016;-44
2023/06/15 11:21:41;;;;;;;4.43;3.22;;;30.70;43.90;;;;;;5076062;28;20086;-43
2023/06/15 11:24:13;;;;;;;5.20;3.05;;;31.40;44.20;;;;;;5077581;28;20023;-44
2023/06/15 11:26:48;;;;;;;4.30;3.40;;;32.20;43.00;;;;;;5080097;28;20032;-47
2023/06/15 11:29:22;;;;;;;7.75;3.28;;;33.60;41.80;;;;;;5081054;28;20043;-43
2023/06/15 11:31:49;;;;;;;7.88;3.72;;;34.60;40.20;;;;;;5077228;28;21281;-43
2023/06/15 11:34:15;;;;;;;4.38;3.17;;;35.60;39.40;;;;;;5078706;28;20031;-43
2023/06/15 11:36:40;;;;;;;10.32;3.63;;;35.70;40.10;;;;;;5077868;28;20020;-43
2023/06/15 11:39:16;;;;;;;3.35;3.05;;;34.40;39.20;;;;;;5071165;28;20027;-44
2023/06/15 11:41:47;;;;;;;4.90;3.58;;;32.80;41.00;;;;;;5079693;28;20020;-44
2023/06/15 11:44:12;;;;;;;7.25;3.55;;;31.50;41.50;;;;;;5078515;28;20012;-46
2023/06/15 11:46:40;;;;;;;7.75;3.58;;;32.30;42.60;;;;;;5079244;28;20374;-45
2023/06/15 11:49:11;;;;;;;8.73;3.58;;;33.40;41.50;;;;;;5079754;28;20027;-43
2023/06/15 11:51:37;;;;;;;4.50;3.25;;;33.10;39.90;;;;;;5079416;28;20027;-43
2023/06/15 11:54:07;;;;;;;6.20;3.03;;;32.50;40.60;;;;;;5078729;28;20038;-44
2023/06/15 11:56:33;;;;;;;5.05;3.33;;;31.90;40.60;;;;;;5082356;28;20020;-42
2023/06/15 11:58:59;;;;;;;6.93;3.70;;;31.30;42.40;;;;;;5082642;28;20113;-43
2023/06/15 12:01:26;;;;;;;6.05;3.42;;;30.70;42.60;;;;;;5080793;28;20028;-43
2023/06/15 12:03:52;;;;;;;3.83;3.15;;;30.10;43.70;;;;;;5083103;28;20043;-43
2023/06/15 12:06:22;;;;;;;6.38;3.15;;;29.50;43.50;;;;;;5081005;28;20052;-45
2023/06/15 12:08:52;;;;;;;6.10;3.30;;;29.20;44.10;;;;;;5075665;28;20040;-42
2023/06/15 12:11:21;;;;;;;;;;;29.30;45.20;;;;;;5068526;28;20359;-45
2023/06/15 12:13:46;;;;;;;5.13;3.25;;;29.60;44.90;;;;;;5076535;28;19908;-46
2023/06/15 12:16:14;;;;;;;6.15;3.42;;;29.60;44.10;;;;;;5079691;28;20020;-43
2023/06/15 12:18:39;;;;;;;10.38;3.80;;;29.20;45.00;;;;;;5078648;28;20016;-42
2023/06/15 12:21:05;;;;;;;9.05;4.07;;;28.90;44.40;;;;;;5074710;28;20031;-42
2023/06/15 12:23:33;;;;;;;8.57;4.10;;;28.60;45.50;;;;;;5080842;28;20124;-42
2023/06/15 12:26:03;;;;;;;5.80;3.80;;;28.80;45.50;;;;;;5068456;28;20048;-42
2023/06/15 12:28:31;;;;;;;5.88;3.38;;;29.40;46.00;;;;;;5070468;28;20020;-42
2023/06/15 12:31:03;;;;;;;8.02;3.67;;;30.10;45.60;;;;;;5067701;28;20394;-43
2023/06/15 12:33:31;;;;;;;7.20;3.72;;;30.30;44.40;;;;;;5068151;28;20040;-42
2023/06/15 12:35:58;;;;;;;6.05;3.70;;;29.40;44.00;;;;;;5068034;28;20023;-45
2023/06/15 12:38:26;;;;;;;4.22;3.28;;;29.00;45.20;;;;;;5064799;28;20024;-43
2023/06/15 12:40:55;;;;;;;8.73;4.35;;;28.60;44.60;;;;;;5071022;28;20101;-44
2023/06/15 12:43:22;;;;;;;10.60;3.90;;;28.10;45.10;;;;;;5067308;28;20023;-44
2023/06/15 12:45:48;;;;;;;10.48;4.32;;;27.90;46.40;;;;;;5067108;28;20112;-43